createdAt,value
2022-08-21T15:19:48.517Z,73.01
2022-08-21T15:29:09.860Z,76.56
2022-08-21T15:31:36.954Z,80.00
2022-08-21T15:34:04.092Z,82.35
2022-08-21T15:36:34.148Z,87.10
2022-08-21T15:39:00.507Z,84.49
2022-08-21T15:41:27.252Z,84.25
2022-08-21T15:43:55.063Z,83.49
2022-08-21T15:46:24.668Z,82.44
2022-08-21T15:48:56.578Z,83.39
2022-08-21T15:54:35.355Z,83.29
2022-08-21T15:57:21.557Z,84.27
2022-08-21T16:00:04.334Z,83.81
2022-08-21T16:02:56.570Z,84.08
2022-08-21T16:05:24.545Z,84.56
2022-08-21T16:08:02.113Z,85.29
2022-08-21T16:10:43.901Z,85.69
2022-08-21T16:13:33.048Z,85.92
2022-08-21T16:16:25.747Z,86.02
2022-08-21T16:18:56.578Z,85.26
2022-08-21T16:21:28.932Z,85.22
2022-08-21T16:24:06.480Z,85.62
2022-08-21T16:26:37.695Z,85.66
2022-08-21T16:29:20.604Z,86.45
2022-08-21T16:32:18.471Z,86.28
2022-08-21T16:35:15.466Z,86.60
2022-08-21T16:37:58.114Z,86.46
2022-08-21T16:40:40.137Z,86.86
2022-08-21T16:43:32.214Z,86.93
2022-08-21T16:46:03.566Z,87.47
2022-08-21T16:48:39.061Z,87.86
2022-08-21T16:51:14.993Z,87.80
2022-08-21T16:53:49.426Z,87.73
2022-08-21T16:56:28.191Z,88.17
2022-08-21T16:59:35.364Z,88.39
2022-08-21T17:02:42.290Z,88.42
2022-08-21T17:06:19.868Z,89.14
2022-08-21T17:15:33.365Z,89.43
2022-08-21T17:18:28.388Z,89.64
2022-08-21T17:21:22.162Z,89.52
2022-08-21T17:24:05.188Z,89.91
2022-08-21T17:26:49.791Z,90.04
2022-08-21T17:29:26.825Z,90.17
2022-08-21T17:32:00.159Z,90.09
2022-08-21T17:34:33.027Z,90.30
2022-08-21T17:37:04.914Z,90.61
2022-08-21T17:39:39.249Z,90.84
2022-08-21T17:42:24.854Z,91.12
2022-08-21T17:45:13.055Z,91.10
2022-08-21T17:47:52.096Z,91.00
2022-08-21T17:50:22.706Z,91.17
2022-08-21T17:52:55.909Z,91.34
2022-08-21T17:55:31.318Z,91.50
2022-08-21T17:57:58.349Z,91.54
2022-08-21T18:00:39.626Z,91.59
2022-08-21T18:03:15.762Z,92.01
2022-08-21T18:05:51.792Z,92.13
2022-08-21T18:08:19.462Z,92.19
2022-08-21T18:10:53.047Z,92.44
2022-08-21T18:13:31.834Z,92.68
2022-08-21T18:16:03.479Z,92.90
2022-08-21T18:18:47.946Z,93.29
2022-08-21T18:21:32.658Z,92.92
2022-08-21T18:24:03.414Z,93.19
2022-08-21T18:26:37.609Z,93.05
2022-08-21T18:29:10.398Z,93.21
2022-08-21T18:31:42.665Z,93.39
2022-08-21T18:34:26.552Z,93.42
2022-08-21T18:37:02.202Z,93.86
2022-08-21T18:40:24.108Z,93.71
2022-08-21T18:42:59.641Z,94.13
2022-08-21T18:45:40.338Z,94.09
2022-08-21T18:48:21.167Z,94.24
2022-08-21T18:51:20.747Z,94.72
2022-08-21T18:53:58.177Z,94.64
2022-08-21T18:56:33.214Z,94.62
2022-08-21T18:59:24.314Z,94.67
2022-08-21T19:01:55.259Z,94.58
2022-08-21T19:04:43.832Z,94.68
2022-08-21T19:07:56.038Z,95.21
2022-08-21T19:14:22.743Z,95.09
2022-08-21T19:25:05.453Z,95.32
2022-08-21T19:33:11.123Z,95.78
2022-08-21T19:36:39.433Z,95.95
2022-08-21T19:50:21.312Z,96.26
2022-08-21T19:57:06.320Z,96.22
2022-08-21T20:04:35.059Z,96.68
2022-08-21T20:15:43.633Z,97.03
2022-08-21T20:22:09.089Z,97.03
2022-08-21T20:45:23.339Z,97.76
2022-08-21T20:48:11.745Z,98.05
2022-08-21T20:59:43.748Z,98.23
2022-08-21T21:09:52.000Z,98.90
2022-08-21T21:12:43.640Z,98.57
2022-08-21T21:15:35.319Z,98.84
2022-08-21T21:18:53.379Z,98.84
2022-08-21T21:21:51.661Z,99.02
2022-08-21T21:25:16.615Z,99.22
2022-08-21T21:28:28.938Z,99.25
2022-08-21T21:35:18.127Z,99.26
2022-08-21T21:38:23.535Z,99.20
2022-08-21T21:41:10.070Z,99.33
2022-08-21T21:44:09.780Z,99.38
2022-08-21T21:47:08.992Z,99.23
2022-08-21T21:50:02.313Z,99.22
2022-08-21T21:52:54.628Z,99.29
2022-08-21T21:55:31.890Z,99.35
2022-08-21T21:58:10.594Z,99.56
2022-08-21T22:01:11.000Z,99.40
2022-08-21T22:03:49.557Z,99.48
2022-08-21T22:06:33.580Z,99.65
2022-08-21T22:09:32.151Z,99.88
2022-08-21T22:12:33.261Z,99.90
2022-08-21T22:15:27.335Z,99.78
2022-08-21T22:18:15.979Z,99.69
2022-08-21T22:21:27.213Z,99.80
2022-08-21T22:24:06.905Z,99.93
2022-08-21T22:26:51.802Z,99.63
2022-08-21T22:29:23.641Z,99.60
2022-08-21T22:32:16.407Z,99.51
2022-08-21T22:35:04.759Z,99.99
2022-08-21T22:38:01.806Z,99.99
2022-08-21T22:40:39.522Z,99.95
2022-08-21T22:43:20.961Z,99.83
2022-08-21T22:46:09.682Z,99.80
2022-08-21T22:48:52.938Z,99.87
2022-08-21T22:51:43.952Z,100.00
2022-08-21T22:54:24.887Z,100.00
2022-08-21T22:57:11.380Z,99.99
2022-08-21T23:00:01.079Z,100.00
2022-08-21T23:02:38.978Z,100.00
2022-08-21T23:05:21.024Z,100.00
2022-08-21T23:09:09.738Z,99.98
2022-08-21T23:11:26.543Z,99.96
2022-08-21T23:14:28.375Z,99.93
2022-08-21T23:17:22.322Z,99.99
2022-08-21T23:20:10.785Z,100.00
2022-08-21T23:23:10.240Z,100.00
2022-08-21T23:26:17.339Z,99.99
2022-08-21T23:29:07.855Z,100.00
2022-08-21T23:32:02.329Z,100.00
2022-08-21T23:35:02.436Z,100.00
2022-08-21T23:37:51.762Z,100.00
2022-08-21T23:40:50.866Z,100.00
2022-08-21T23:43:49.507Z,100.00
2022-08-21T23:46:38.036Z,100.00
2022-08-21T23:49:33.193Z,100.00
2022-08-21T23:52:20.033Z,100.00
2022-08-21T23:55:08.144Z,100.00
2022-08-21T23:58:02.452Z,100.00
